createdAt,value
2022-11-27T05:17:14.417Z,5.80
2022-11-27T05:19:40.966Z,6.75
2022-11-27T05:22:07.423Z,7.20
2022-11-27T05:24:33.963Z,7.15
2022-11-27T05:27:00.367Z,7.90
2022-11-27T05:29:27.247Z,7.78
2022-11-27T05:31:53.817Z,8.18
2022-11-27T05:34:20.655Z,6.05
2022-11-27T05:36:47.375Z,6.55
2022-11-27T05:39:14.847Z,7.75
2022-11-27T05:41:43.207Z,7.70
2022-11-27T05:44:14.587Z,8.27
2022-11-27T05:46:43.612Z,7.40
2022-11-27T05:49:15.523Z,7.38
2022-11-27T05:51:49.203Z,7.30
2022-11-27T05:54:17.323Z,7.38
2022-11-27T05:56:43.755Z,6.65
2022-11-27T05:59:10.870Z,8.27
2022-11-27T06:01:37.462Z,8.13
2022-11-27T06:04:04.208Z,7.43
2022-11-27T06:06:35.506Z,7.15
2022-11-27T06:09:01.991Z,7.15
2022-11-27T06:11:28.462Z,6.88
2022-11-27T06:13:54.873Z,7.55
2022-11-27T06:16:23.288Z,8.50
2022-11-27T06:18:51.726Z,8.27
2022-11-27T06:21:19.277Z,7.32
2022-11-27T06:23:45.870Z,7.43
2022-11-27T06:26:13.467Z,7.95
2022-11-27T06:28:40.904Z,6.93
2022-11-27T06:31:17.431Z,7.78
2022-11-27T06:33:45.642Z,7.07
2022-11-27T06:36:12.150Z,9.10
2022-11-27T06:38:38.808Z,8.65
2022-11-27T06:41:07.664Z,7.00
2022-11-27T06:43:35.040Z,9.02
2022-11-27T06:46:04.076Z,7.95
2022-11-27T06:48:31.858Z,8.57
2022-11-27T06:51:03.086Z,8.05
2022-11-27T06:53:30.722Z,8.55
2022-11-27T06:55:57.481Z,7.72
2022-11-27T06:58:29.416Z,8.63
2022-11-27T07:01:03.074Z,7.60
2022-11-27T07:03:30.066Z,8.98
2022-11-27T07:06:00.666Z,7.50
2022-11-27T07:08:27.808Z,7.72
2022-11-27T07:10:54.476Z,8.05
2022-11-27T07:13:20.886Z,8.73
2022-11-27T07:15:47.324Z,7.82
2022-11-27T07:18:13.753Z,9.00
2022-11-27T07:20:40.228Z,8.50
2022-11-27T07:23:06.686Z,8.40
2022-11-27T07:25:37.725Z,8.27
2022-11-27T07:28:04.264Z,9.00
2022-11-27T07:30:30.840Z,8.75
2022-11-27T07:32:57.264Z,9.48
2022-11-27T07:35:23.718Z,8.30
2022-11-27T07:37:50.143Z,8.57
2022-11-27T07:40:18.412Z,7.15
2022-11-27T07:42:45.080Z,7.72
2022-11-27T07:45:12.153Z,8.50
2022-11-27T07:47:39.050Z,7.65
2022-11-27T07:50:08.142Z,7.53
2022-11-27T07:52:41.046Z,8.55
2022-11-27T07:55:08.494Z,7.28
2022-11-27T07:57:34.938Z,7.75
2022-11-27T08:00:01.450Z,9.35
2022-11-27T08:02:30.979Z,8.15
2022-11-27T08:04:57.516Z,7.82
2022-11-27T08:07:28.726Z,9.20
2022-11-27T08:09:55.362Z,8.00
2022-11-27T08:12:23.208Z,7.38
2022-11-27T08:14:49.606Z,7.60
2022-11-27T08:17:16.083Z,8.27
2022-11-27T08:19:42.496Z,6.80
2022-11-27T08:22:17.070Z,7.43
2022-11-27T08:24:43.580Z,7.38
2022-11-27T08:27:10.941Z,5.97
2022-11-27T08:29:40.446Z,7.07
2022-11-27T08:32:09.126Z,6.45
2022-11-27T08:34:36.996Z,6.78
2022-11-27T08:37:07.537Z,5.97
2022-11-27T08:39:34.028Z,6.28
2022-11-27T08:42:00.703Z,5.93
2022-11-27T08:44:30.254Z,5.35
2022-11-27T08:46:56.766Z,5.90
2022-11-27T08:49:23.321Z,6.13
2022-11-27T08:51:49.794Z,5.90
2022-11-27T08:54:16.223Z,6.88
2022-11-27T08:56:46.743Z,6.65
2022-11-27T08:59:13.260Z,7.13
2022-11-27T09:01:39.769Z,9.88
2022-11-27T09:04:07.338Z,7.40
2022-11-27T09:06:34.864Z,7.72
2022-11-27T09:09:04.143Z,8.07
2022-11-27T09:11:31.970Z,7.68
2022-11-27T09:14:02.758Z,7.53
2022-11-27T09:16:30.493Z,7.97
2022-11-27T09:18:58.077Z,7.65
2022-11-27T09:21:30.528Z,7.75
2022-11-27T09:23:59.019Z,6.75
2022-11-27T09:26:27.017Z,7.10
2022-11-27T09:28:54.928Z,7.10
2022-11-27T09:31:22.793Z,8.18
2022-11-27T09:33:50.032Z,7.40
2022-11-27T09:36:20.339Z,6.68
2022-11-27T09:38:47.509Z,6.75
2022-11-27T09:41:35.701Z,7.03
2022-11-27T09:44:23.965Z,6.78
2022-11-27T09:46:52.779Z,6.63
2022-11-27T09:49:41.060Z,5.40
2022-11-27T09:52:42.767Z,6.85
2022-11-27T09:55:23.620Z,7.65
2022-11-27T09:57:59.742Z,6.40
2022-11-27T10:00:26.427Z,7.75
2022-11-27T10:02:53.937Z,6.15
2022-11-27T10:05:28.039Z,7.65
2022-11-27T10:08:12.879Z,8.23
2022-11-27T10:11:13.453Z,6.18
2022-11-27T10:14:04.338Z,6.88
2022-11-27T10:16:44.324Z,7.47
2022-11-27T10:19:26.439Z,6.15
2022-11-27T10:22:19.618Z,6.63
2022-11-27T10:27:43.298Z,5.50
2022-11-27T10:30:18.950Z,5.43
2022-11-27T10:32:56.579Z,5.47
2022-11-27T10:35:32.506Z,5.07
2022-11-27T10:38:37.410Z,4.95
2022-11-27T10:41:53.162Z,5.35
2022-11-27T10:44:32.895Z,5.97
2022-11-27T10:47:04.062Z,5.80
2022-11-27T10:49:31.599Z,4.97
2022-11-27T10:51:58.064Z,5.90
2022-11-27T10:54:34.653Z,5.50
2022-11-27T10:57:04.093Z,5.28
2022-11-27T10:59:35.729Z,5.78
2022-11-27T11:02:05.454Z,5.78
2022-11-27T11:04:39.702Z,4.75
2022-11-27T11:07:24.905Z,4.68
2022-11-27T11:09:52.579Z,5.68
2022-11-27T11:12:21.834Z,5.75
2022-11-27T11:14:56.897Z,6.68
2022-11-27T11:17:30.370Z,5.95
2022-11-27T11:19:56.933Z,6.18
2022-11-27T11:22:24.512Z,5.00
2022-11-27T11:24:54.493Z,5.55
2022-11-27T11:27:29.652Z,6.03
2022-11-27T11:30:00.624Z,5.35
2022-11-27T11:32:37.286Z,5.88
2022-11-27T11:35:26.031Z,5.85
2022-11-27T11:37:53.346Z,6.57
2022-11-27T11:40:19.861Z,6.95
2022-11-27T11:43:04.277Z,5.90
2022-11-27T11:45:33.384Z,4.88
2022-11-27T11:48:02.725Z,5.55
2022-11-27T11:50:53.904Z,5.22
2022-11-27T11:53:40.660Z,4.70
2022-11-27T11:56:35.206Z,5.10
2022-11-27T12:01:54.072Z,5.07
2022-11-27T12:05:03.424Z,5.00
2022-11-27T12:07:54.123Z,4.88
2022-11-27T12:10:30.803Z,5.18
2022-11-27T12:13:30.382Z,4.43
2022-11-27T12:16:29.135Z,4.70
2022-11-27T12:19:17.379Z,4.90
2022-11-27T12:21:46.983Z,4.45
2022-11-27T12:24:20.190Z,4.88
2022-11-27T12:27:08.163Z,5.03
2022-11-27T12:29:58.323Z,4.40
2022-11-27T12:32:48.012Z,3.85
2022-11-27T12:35:29.819Z,3.85
2022-11-27T12:38:02.967Z,4.40
2022-11-27T12:41:08.013Z,4.10
2022-11-27T12:43:40.794Z,4.35
2022-11-27T12:46:19.871Z,4.50
2022-11-27T12:48:53.408Z,4.25
2022-11-27T12:51:41.092Z,4.60
2022-11-27T12:54:29.340Z,4.03
2022-11-27T12:57:02.692Z,4.18
2022-11-27T12:59:35.078Z,4.07
2022-11-27T13:02:14.609Z,4.05
2022-11-27T13:04:55.272Z,3.38
2022-11-27T13:07:27.669Z,4.13
2022-11-27T13:10:18.239Z,4.13
2022-11-27T13:12:51.694Z,4.20
2022-11-27T13:15:30.431Z,3.85
2022-11-27T13:18:14.137Z,3.78
2022-11-27T13:20:41.827Z,3.85
2022-11-27T13:23:08.469Z,4.00
2022-11-27T13:25:41.183Z,4.57
2022-11-27T13:28:08.622Z,4.32
2022-11-27T13:30:37.447Z,3.88
2022-11-27T13:33:06.324Z,4.65
2022-11-27T13:35:40.040Z,4.40
2022-11-27T13:38:11.490Z,4.03
2022-11-27T13:40:41.993Z,4.00
2022-11-27T13:43:33.934Z,4.15
2022-11-27T13:46:04.801Z,3.60
2022-11-27T13:48:47.344Z,3.55
2022-11-27T13:51:24.589Z,3.70
2022-11-27T13:53:51.046Z,3.65
2022-11-27T13:56:30.124Z,3.53
2022-11-27T13:58:56.994Z,3.80
2022-11-27T14:01:25.090Z,4.00
2022-11-27T14:03:52.183Z,3.80
2022-11-27T14:06:23.715Z,3.83
2022-11-27T14:08:57.739Z,4.43
2022-11-27T14:14:15.590Z,4.00
2022-11-27T14:16:42.610Z,3.78
2022-11-27T14:19:34.364Z,4.25
2022-11-27T14:22:13.223Z,4.05
2022-11-27T14:24:43.605Z,4.18
2022-11-27T14:27:22.960Z,4.13
2022-11-27T14:29:50.781Z,4.40
2022-11-27T14:32:19.656Z,4.35
2022-11-27T14:34:50.678Z,3.75
2022-11-27T14:37:25.985Z,3.42
2022-11-27T14:39:52.890Z,4.28
2022-11-27T14:42:28.984Z,3.20
2022-11-27T14:45:08.609Z,4.05
2022-11-27T14:47:39.116Z,4.38
2022-11-27T14:50:07.474Z,3.95
2022-11-27T14:52:34.066Z,4.22
2022-11-27T14:55:01.514Z,4.30
2022-11-27T14:57:30.249Z,4.13
2022-11-27T15:00:17.299Z,4.00
2022-11-27T15:02:44.796Z,4.45
2022-11-27T15:05:39.002Z,8.68
2022-11-27T15:08:09.649Z,4.25
2022-11-27T15:10:39.104Z,3.92
2022-11-27T15:13:08.188Z,3.90
2022-11-27T15:15:44.141Z,3.78
2022-11-27T15:18:20.694Z,3.83
2022-11-27T15:20:47.661Z,3.72
2022-11-27T15:23:19.216Z,3.22
2022-11-27T15:26:12.606Z,3.60
2022-11-27T15:28:53.179Z,3.63
2022-11-27T15:31:33.269Z,3.35
2022-11-27T15:34:04.212Z,3.38
2022-11-27T15:36:45.168Z,3.25
2022-11-27T15:39:22.474Z,2.35
2022-11-27T15:41:58.052Z,2.95
2022-11-27T15:44:26.101Z,2.53
2022-11-27T15:46:54.619Z,4.25
2022-11-27T15:49:22.889Z,6.13
2022-11-27T15:51:50.043Z,5.22
2022-11-27T15:54:16.484Z,6.13
2022-11-27T15:56:43.239Z,5.85
2022-11-27T15:59:10.450Z,6.40
2022-11-27T16:01:37.821Z,7.60
2022-11-27T16:04:04.484Z,7.63
2022-11-27T16:06:31.445Z,7.90
2022-11-27T16:08:59.819Z,7.85
2022-11-27T16:11:28.089Z,7.25
2022-11-27T16:13:54.519Z,7.85
2022-11-27T16:16:21.733Z,8.00
2022-11-27T16:18:48.389Z,7.57
2022-11-27T16:21:16.449Z,8.35
2022-11-27T16:23:43.220Z,7.93
2022-11-27T16:26:14.629Z,7.70
2022-11-27T16:28:41.223Z,8.02
2022-11-27T16:31:12.159Z,8.35
2022-11-27T16:33:38.921Z,8.77
2022-11-27T16:36:12.698Z,8.43
2022-11-27T16:38:40.038Z,9.30
2022-11-27T16:41:08.859Z,7.97
2022-11-27T16:43:39.474Z,7.78
2022-11-27T16:46:13.443Z,7.45
2022-11-27T16:48:43.276Z,8.18
2022-11-27T16:51:16.145Z,6.88
2022-11-27T16:53:47.281Z,7.32
2022-11-27T16:56:15.705Z,6.72
2022-11-27T16:58:44.447Z,7.72
2022-11-27T17:01:15.203Z,8.75
2022-11-27T17:03:41.974Z,9.73
2022-11-27T17:06:12.934Z,9.35
2022-11-27T17:08:40.095Z,9.50
2022-11-27T17:11:17.833Z,11.48
2022-11-27T17:13:44.746Z,7.47
2022-11-27T17:16:11.339Z,6.82
2022-11-27T17:18:39.419Z,5.38
2022-11-27T17:21:10.031Z,5.38
2022-11-27T17:23:38.245Z,5.57
2022-11-27T17:26:09.247Z,5.35
2022-11-27T17:28:37.019Z,5.63
2022-11-27T17:31:12.724Z,4.88
2022-11-27T17:33:39.541Z,5.03
2022-11-27T17:36:06.666Z,5.43
2022-11-27T17:38:33.864Z,4.88
2022-11-27T17:41:12.438Z,3.75
2022-11-27T17:43:40.899Z,3.83
2022-11-27T17:46:09.684Z,3.70
2022-11-27T17:48:36.732Z,3.88
2022-11-27T17:51:04.469Z,3.92
2022-11-27T17:53:32.617Z,4.50
2022-11-27T17:56:07.199Z,3.92
2022-11-27T17:58:34.055Z,4.70
2022-11-27T18:01:05.020Z,3.90
2022-11-27T18:03:36.227Z,4.05
2022-11-27T18:06:09.479Z,5.40
2022-11-27T18:08:36.273Z,4.68
2022-11-27T18:11:09.192Z,4.85
2022-11-27T18:13:39.974Z,4.95
2022-11-27T18:16:18.784Z,4.50
2022-11-27T18:18:45.855Z,4.97
2022-11-27T18:21:18.305Z,5.30
2022-11-27T18:24:20.668Z,5.72
2022-11-27T18:29:22.174Z,5.85
2022-11-27T18:31:49.963Z,6.38
2022-11-27T18:34:16.508Z,5.90
2022-11-27T18:36:43.127Z,5.05
2022-11-27T18:39:09.647Z,5.63
2022-11-27T18:41:37.201Z,5.60
2022-11-27T18:44:04.448Z,5.45
2022-11-27T18:46:31.145Z,5.22
2022-11-27T18:48:58.730Z,5.32
2022-11-27T18:51:28.309Z,5.00
2022-11-27T18:53:56.498Z,4.88
2022-11-27T18:56:26.283Z,5.25
2022-11-27T18:58:53.844Z,6.55
2022-11-27T19:01:26.427Z,9.00
2022-11-27T19:03:53.504Z,7.43
2022-11-27T19:06:24.658Z,6.68
2022-11-27T19:08:52.186Z,5.55
2022-11-27T19:11:21.790Z,6.03
2022-11-27T19:13:49.760Z,5.32
2022-11-27T19:16:19.761Z,5.10
2022-11-27T19:18:47.004Z,5.80
2022-11-27T19:21:20.205Z,6.00
2022-11-27T19:23:48.277Z,4.72
2022-11-27T19:26:19.060Z,5.00
2022-11-27T19:28:48.944Z,5.22
2022-11-27T19:31:16.392Z,4.82
2022-11-27T19:33:44.142Z,4.97
2022-11-27T19:36:13.645Z,5.45
2022-11-27T19:38:42.194Z,5.75
2022-11-27T19:41:16.776Z,4.57
2022-11-27T19:43:43.924Z,5.53
2022-11-27T19:46:17.661Z,5.15
2022-11-27T19:48:44.702Z,4.88
2022-11-27T19:51:11.864Z,5.20
2022-11-27T19:53:39.300Z,5.30
2022-11-27T19:56:06.787Z,5.40
2022-11-27T19:58:33.745Z,6.80
2022-11-27T20:01:06.490Z,5.93
2022-11-27T20:03:33.472Z,5.30
2022-11-27T20:06:08.708Z,5.15
2022-11-27T20:08:35.187Z,5.28
2022-11-27T20:11:02.291Z,5.30
2022-11-27T20:13:28.802Z,4.65
2022-11-27T20:15:55.593Z,4.95
2022-11-27T20:18:22.644Z,5.55
2022-11-27T20:20:49.136Z,5.95
2022-11-27T20:23:15.702Z,5.10
2022-11-27T20:25:42.549Z,5.78
2022-11-27T20:28:09.958Z,5.82
2022-11-27T20:30:39.158Z,5.97
2022-11-27T20:33:07.696Z,5.55
2022-11-27T20:35:34.872Z,5.80
2022-11-27T20:38:02.223Z,5.05
2022-11-27T20:40:28.798Z,5.22
2022-11-27T20:42:55.606Z,5.53
2022-11-27T20:45:22.336Z,5.22
2022-11-27T20:47:49.384Z,5.18
2022-11-27T20:50:17.954Z,5.82
2022-11-27T20:52:45.410Z,6.22
2022-11-27T20:55:12.668Z,6.22
2022-11-27T20:57:39.360Z,5.75
2022-11-27T21:00:06.484Z,5.38
2022-11-27T21:02:33.248Z,6.68
2022-11-27T21:04:59.775Z,5.40
2022-11-27T21:07:26.721Z,7.70
2022-11-27T21:09:54.010Z,7.53
2022-11-27T21:12:20.719Z,6.90
2022-11-27T21:14:47.241Z,5.90
2022-11-27T21:17:15.870Z,5.47
2022-11-27T21:19:43.617Z,5.10
2022-11-27T21:22:10.367Z,5.28
2022-11-27T21:24:37.079Z,5.10
2022-11-27T21:27:05.011Z,5.60
2022-11-27T21:29:31.675Z,5.15
2022-11-27T21:31:58.265Z,5.20
2022-11-27T21:34:25.190Z,4.88
2022-11-27T21:36:51.710Z,4.88
2022-11-27T21:39:21.614Z,4.85
2022-11-27T21:41:50.241Z,4.95
2022-11-27T21:44:18.795Z,4.82
2022-11-27T21:46:46.095Z,4.75
2022-11-27T21:49:15.184Z,5.00
2022-11-27T21:51:42.106Z,5.38
2022-11-27T21:54:12.706Z,4.97
2022-11-27T21:56:40.722Z,5.03
2022-11-27T21:59:10.492Z,5.15
2022-11-27T22:01:37.273Z,4.85
2022-11-27T22:04:04.037Z,4.60
2022-11-27T22:06:36.224Z,5.40
2022-11-27T22:09:04.488Z,5.65
2022-11-27T22:11:31.108Z,5.20
2022-11-27T22:14:01.107Z,5.45
2022-11-27T22:16:33.980Z,5.32
2022-11-27T22:19:01.422Z,5.90
2022-11-27T22:21:30.122Z,5.38
2022-11-27T22:23:57.840Z,5.45
2022-11-27T22:26:25.277Z,5.88
2022-11-27T22:28:52.181Z,5.82
2022-11-27T22:31:29.842Z,5.35
2022-11-27T22:33:57.583Z,5.32
2022-11-27T22:36:27.626Z,4.60
2022-11-27T22:38:55.429Z,5.63
2022-11-27T22:41:25.412Z,5.60
2022-11-27T22:43:52.742Z,4.78
2022-11-27T22:46:26.504Z,4.95
2022-11-27T22:48:54.749Z,5.20
2022-11-27T22:51:23.055Z,4.43
2022-11-27T22:53:49.739Z,5.10
2022-11-27T22:56:16.362Z,4.97
2022-11-27T22:58:43.597Z,5.72
